Time;durP1;ratioP1;P1;durP2;ratioP2;P2;SDS_P1;SDS_P2;PMS_P1;PMS_P2;Temp;Humidity;BMP_temperature;BMP_pressure;BME280_temperature;BME280_humidity;BME280_pressure;Samples;Min_cycle;Max_cycle;Signal;HPM_P1;HPM_P2
2024/01/25 00:00:31;;;;;;;;;;;;;;;10.77;87.76;102556.69;7339549;19;20638;-68
2024/01/25 00:02:58;;;;;;;;;;;;;;;10.78;88.39;102553.13;7339168;19;20365;-68
2024/01/25 00:05:25;;;;;;;;;;;;;;;10.77;88.82;102548.78;7343108;19;19958;-68
2024/01/25 00:07:52;;;;;;;;;;;;;;;10.78;88.48;102547.00;7330410;19;20955;-70
2024/01/25 00:10:19;;;;;;;;;;;;;;;10.77;88.61;102548.78;7351148;19;19934;-68
2024/01/25 00:12:46;;;;;;;;;;;;;;;10.78;88.44;102549.63;7356207;19;20945;-68
2024/01/25 00:15:16;;;;;;;;;;;;;;;10.77;88.64;102540.09;7347437;19;19946;-67
2024/01/25 00:17:46;;;;;;;;;;;;;;;10.72;88.06;102541.22;7337392;19;19926;-68
2024/01/25 00:20:13;;;;;;;;;;;;;;;10.70;88.02;102535.25;7338736;19;19910;-68
2024/01/25 00:22:41;;;;;;;;;;;;;;;10.72;88.39;102533.34;7341188;19;19934;-68
2024/01/25 00:25:09;;;;;;;;;;;;;;;10.70;88.60;102532.63;7331677;19;19918;-68
2024/01/25 00:27:36;;;;;;;;;;;;;;;10.71;87.77;102528.19;7339581;19;19950;-68
2024/01/25 00:30:04;;;;;;;;;;;;;;;10.67;88.05;102529.34;7342588;19;20411;-68
2024/01/25 00:32:31;;;;;;;;;;;;;;;10.67;88.28;102526.72;7343380;19;20373;-68
2024/01/25 00:34:59;;;;;;;;;;;;;;;10.65;88.28;102526.84;7345543;19;19931;-69
2024/01/25 00:37:26;;;;;;;;;;;;;;;10.60;88.04;102525.50;7343291;19;20239;-68
2024/01/25 00:39:53;;;;;;;;;;;;;;;10.59;88.28;102523.81;7344922;19;19918;-69
2024/01/25 00:42:22;;;;;;;;;;;;;;;10.59;88.69;102524.66;7355387;19;19914;-70
2024/01/25 00:44:49;;;;;;;;;;;;;;;10.62;89.16;102495.47;7349921;19;19938;-69
2024/01/25 00:47:16;;;;;;;;;;;;;;;10.59;88.36;102493.06;7347600;19;20249;-69
2024/01/25 00:49:43;;;;;;;;;;;;;;;10.59;88.38;102505.38;7347356;19;20433;-69
2024/01/25 00:52:10;;;;;;;;;;;;;;;10.59;88.85;102513.28;7344365;19;19919;-67
2024/01/25 00:54:37;;;;;;;;;;;;;;;10.56;88.42;102513.53;7345671;19;19946;-69
2024/01/25 00:57:05;;;;;;;;;;;;;;;10.53;88.37;102518.97;7351583;19;19974;-69
2024/01/25 00:59:31;;;;;;;;;;;;;;;10.52;88.84;102525.19;7345777;19;19939;-70
2024/01/25 01:01:59;;;;;;;;;;;;;;;10.53;88.92;102521.63;7344241;19;19941;-69
2024/01/25 01:04:29;;;;;;;;;;;;;;;10.54;89.03;102518.88;7346625;19;19949;-68
2024/01/25 01:06:56;;;;;;;;;;;;;;;10.56;89.96;102514.38;7342567;19;20495;-69
2024/01/25 01:09:23;;;;;;;;;;;;;;;10.52;90.46;102504.13;7343911;19;19970;-68
2024/01/25 01:11:52;;;;;;;;;;;;;;;10.49;90.30;102499.09;7347318;19;19919;-69
2024/01/25 01:14:18;;;;;;;;;;;;;;;10.49;89.87;102499.94;7347893;19;19954;-68
2024/01/25 01:16:45;;;;;;;;;;;;;;;10.47;89.61;102511.53;7351523;19;19915;-67
2024/01/25 01:19:12;;;;;;;;;;;;;;;10.46;89.91;102505.44;7342010;19;21639;-67
2024/01/25 01:21:43;;;;;;;;;;;;;;;10.46;89.74;102520.41;7346596;19;19927;-69
2024/01/25 01:24:13;;;;;;;;;;;;;;;10.43;89.73;102525.84;7348409;19;19923;-68
2024/01/25 01:26:41;;;;;;;;;;;;;;;10.40;89.61;102519.03;7344591;19;20478;-68
2024/01/25 01:29:08;;;;;;;;;;;;;;;10.36;89.82;102517.59;7345041;19;19915;-68
2024/01/25 01:31:35;;;;;;;;;;;;;;;10.34;89.61;102516.00;7348062;19;19940;-68
2024/01/25 01:34:02;;;;;;;;;;;;;;;10.32;90.00;102512.63;7341398;19;20850;-68
2024/01/25 01:36:29;;;;;;;;;;;;;;;10.29;89.99;102504.00;7346364;19;20320;-68
2024/01/25 01:38:56;;;;;;;;;;;;;;;10.27;90.11;102492.75;7343168;19;20042;-69
2024/01/25 01:41:23;;;;;;;;;;;;;;;10.25;90.38;102496.47;7336566;19;19923;-68
2024/01/25 01:43:54;;;;;;;;;;;;;;;10.24;90.52;102494.78;7342320;19;21574;-68
2024/01/25 01:46:31;;;;;;;;;;;;;;;10.22;90.44;102483.50;7345767;19;19919;-68
2024/01/25 01:48:58;;;;;;;;;;;;;;;10.21;90.82;102473.94;7344070;19;20719;-68
2024/01/25 01:51:27;;;;;;;;;;;;;;;10.16;90.83;102471.63;7350652;19;21502;-70
2024/01/25 01:53:55;;;;;;;;;;;;;;;10.21;91.02;102466.03;7334279;19;19915;-67
2024/01/25 01:56:23;;;;;;;;;;;;;;;10.23;90.98;102461.50;7346341;19;20741;-69
2024/01/25 01:58:51;;;;;;;;;;;;;;;10.24;90.55;102461.41;7342371;19;20676;-68
2024/01/25 02:01:24;;;;;;;;;;;;;;;10.22;90.02;102465.09;7348292;19;19919;-69
2024/01/25 02:03:55;;;;;;;;;;;;;;;10.18;89.80;102475.00;7331931;19;20574;-67
2024/01/25 02:06:26;;;;;;;;;;;;;;;10.17;90.61;102469.84;7338388;19;20240;-68
2024/01/25 02:08:53;;;;;;;;;;;;;;;10.19;90.47;102460.06;7342027;19;20486;-69
2024/01/25 02:11:20;;;;;;;;;;;;;;;10.17;90.27;102449.63;7345330;19;20039;-69
2024/01/25 02:13:47;;;;;;;;;;;;;;;10.11;89.85;102455.31;7340300;19;19943;-69
2024/01/25 02:16:17;;;;;;;;;;;;;;;10.04;90.29;102456.72;7348785;19;20007;-67
2024/01/25 02:18:45;;;;;;;;;;;;;;;9.98;90.64;102457.13;7341585;19;20018;-69
2024/01/25 02:21:13;;;;;;;;;;;;;;;9.96;90.69;102452.91;7347650;19;20268;-68
2024/01/25 02:23:43;;;;;;;;;;;;;;;9.93;91.46;102447.88;7341197;19;19923;-68
2024/01/25 02:26:10;;;;;;;;;;;;;;;9.93;91.74;102440.84;7339668;19;19998;-68
2024/01/25 02:28:38;;;;;;;;;;;;;;;9.95;91.96;102433.69;7341577;19;21302;-68
2024/01/25 02:31:04;;;;;;;;;;;;;;;9.96;92.29;102437.97;7349489;19;20326;-68
2024/01/25 02:33:31;;;;;;;;;;;;;;;9.98;92.18;102441.34;7339668;19;19918;-68
2024/01/25 02:35:58;;;;;;;;;;;;;;;10.02;92.05;102434.94;7336525;19;19914;-68
2024/01/25 02:38:25;;;;;;;;;;;;;;;10.03;91.59;102447.13;7336795;19;19957;-68
2024/01/25 02:40:53;;;;;;;;;;;;;;;10.01;91.34;102450.81;7338729;19;19998;-68
2024/01/25 02:43:30;;;;;;;;;;;;;;;9.98;91.22;102454.50;7344450;19;19918;-68
2024/01/25 02:45:58;;;;;;;;;;;;;;;9.98;91.55;102451.03;7340671;19;20017;-67
2024/01/25 02:48:26;;;;;;;;;;;;;;;9.99;92.15;102440.41;7343411;19;19991;-68
2024/01/25 02:50:53;;;;;;;;;;;;;;;10.00;91.58;102428.94;7344921;19;19927;-70
2024/01/25 02:53:20;;;;;;;;;;;;;;;10.01;91.54;102414.00;7346448;19;19923;-68
2024/01/25 02:55:47;;;;;;;;;;;;;;;9.97;91.26;102423.91;7337778;19;21932;-68
2024/01/25 02:58:14;;;;;;;;;;;;;;;9.94;91.43;102423.28;7343249;19;19933;-69
2024/01/25 03:00:41;;;;;;;;;;;;;;;9.92;92.42;102428.63;7348553;19;19927;-69
2024/01/25 03:03:12;;;;;;;;;;;;;;;9.92;92.82;102431.28;7340850;19;19931;-68
2024/01/25 03:05:42;;;;;;;;;;;;;;;9.91;92.83;102426.94;7339398;19;19918;-68
2024/01/25 03:08:10;;;;;;;;;;;;;;;9.89;92.45;102434.13;7341195;19;19929;-68
2024/01/25 03:10:38;;;;;;;;;;;;;;;9.86;92.27;102427.28;7341996;19;19986;-68
2024/01/25 03:13:05;;;;;;;;;;;;;;;9.87;92.31;102418.44;7346078;19;19911;-69
2024/01/25 03:15:33;;;;;;;;;;;;;;;9.88;92.26;102414.03;7340682;19;19994;-69
2024/01/25 03:18:00;;;;;;;;;;;;;;;9.91;92.20;102415.59;7346857;19;19911;-68
2024/01/25 03:20:27;;;;;;;;;;;;;;;9.87;92.25;102400.06;7335386;19;19923;-68
2024/01/25 03:22:56;;;;;;;;;;;;;;;9.82;92.05;102402.16;7343090;19;19922;-68
2024/01/25 03:25:23;;;;;;;;;;;;;;;9.77;92.22;102395.56;7338034;19;19919;-68
2024/01/25 03:27:49;;;;;;;;;;;;;;;9.75;92.67;102386.94;7345593;19;20438;-68
2024/01/25 03:30:17;;;;;;;;;;;;;;;9.70;92.86;102382.00;7340308;19;20864;-67
2024/01/25 03:32:45;;;;;;;;;;;;;;;9.77;92.92;102379.78;7343005;19;20781;-69
2024/01/25 03:35:12;;;;;;;;;;;;;;;9.82;93.18;102370.63;7349593;19;19927;-68
2024/01/25 03:37:39;;;;;;;;;;;;;;;9.87;92.85;102373.75;7355394;19;19937;-67
2024/01/25 03:40:06;;;;;;;;;;;;;;;9.90;92.30;102366.63;7342574;19;20616;-71
2024/01/25 03:42:33;;;;;;;;;;;;;;;9.93;92.44;102359.34;7345569;19;19958;-68
2024/01/25 03:45:02;;;;;;;;;;;;;;;9.95;92.64;102367.13;7341284;19;19919;-68
2024/01/25 03:47:28;;;;;;;;;;;;;;;9.99;92.31;102376.47;7336367;19;20010;-68
2024/01/25 03:49:56;;;;;;;;;;;;;;;9.99;92.15;102368.56;7332784;19;22065;-67
2024/01/25 03:52:30;;;;;;;;;;;;;;;9.98;91.88;102366.91;7344380;19;19925;-69
2024/01/25 03:54:57;;;;;;;;;;;;;;;9.98;91.83;102359.00;7337309;19;19926;-69
2024/01/25 03:57:24;;;;;;;;;;;;;;;10.02;92.12;102352.56;7339766;19;19919;-69
2024/01/25 03:59:51;;;;;;;;;;;;;;;10.05;91.99;102357.63;7344477;19;19922;-68
2024/01/25 04:02:22;;;;;;;;;;;;;;;10.03;91.71;102349.00;7343642;19;20604;-68
2024/01/25 04:04:52;;;;;;;;;;;;;;;10.05;91.11;102347.09;7339091;19;19930;-68
2024/01/25 04:07:19;;;;;;;;;;;;;;;10.03;91.14;102347.22;7336349;19;19930;-68
2024/01/25 04:09:46;;;;;;;;;;;;;;;10.07;91.02;102351.28;7337529;19;19914;-68
2024/01/25 04:12:13;;;;;;;;;;;;;;;10.11;90.87;102349.25;7345210;19;19923;-68
2024/01/25 04:14:40;;;;;;;;;;;;;;;10.08;90.98;102347.72;7346570;19;19947;-69
2024/01/25 04:17:07;;;;;;;;;;;;;;;10.08;90.76;102347.72;7353674;19;19922;-69
2024/01/25 04:19:35;;;;;;;;;;;;;;;10.02;90.76;102340.25;7348362;19;19929;-69
2024/01/25 04:22:02;;;;;;;;;;;;;;;10.03;90.44;102343.72;7354175;19;20477;-68
2024/01/25 04:24:29;;;;;;;;;;;;;;;10.02;90.96;102340.25;7356000;19;19922;-69
2024/01/25 04:26:56;;;;;;;;;;;;;;;10.05;90.79;102326.91;7349270;19;19999;-67
2024/01/25 04:29:23;;;;;;;;;;;;;;;10.04;90.57;102337.53;7348255;19;19923;-68
2024/01/25 04:31:50;;;;;;;;;;;;;;;9.98;90.61;102333.56;7345509;19;19922;-69
2024/01/25 04:34:17;;;;;;;;;;;;;;;10.02;90.55;102340.25;7351426;19;19922;-68
2024/01/25 04:36:44;;;;;;;;;;;;;;;10.03;90.14;102334.06;7345025;19;19923;-68
2024/01/25 04:39:11;;;;;;;;;;;;;;;10.06;90.55;102325.09;7346526;19;20181;-68
2024/01/25 04:41:38;;;;;;;;;;;;;;;10.10;90.33;102329.19;7353391;19;19932;-68
2024/01/25 04:44:05;;;;;;;;;;;;;;;10.09;89.98;102328.34;7343403;19;19947;-69
2024/01/25 04:46:36;;;;;;;;;;;;;;;10.05;90.02;102344.47;7345605;19;19919;-69
2024/01/25 04:49:09;;;;;;;;;;;;;;;10.09;90.29;102330.16;7350572;19;19991;-69
2024/01/25 04:51:36;;;;;;;;;;;;;;;10.09;89.98;102320.47;7348622;19;19944;-68
2024/01/25 04:54:03;;;;;;;;;;;;;;;10.13;90.75;102334.22;7342794;19;19918;-68
2024/01/25 04:56:30;;;;;;;;;;;;;;;10.17;90.48;102319.91;7345229;19;20307;-69
2024/01/25 04:58:57;;;;;;;;;;;;;;;10.18;90.31;102319.81;7346824;19;21974;-69
2024/01/25 05:01:24;;;;;;;;;;;;;;;10.18;89.85;102322.44;7348843;19;19911;-69
2024/01/25 05:03:51;;;;;;;;;;;;;;;10.18;90.12;102316.34;7347933;19;19946;-69
2024/01/25 05:06:18;;;;;;;;;;;;;;;10.20;90.78;102312.66;7350149;19;19990;-68
2024/01/25 05:08:44;;;;;;;;;;;;;;;10.21;90.68;102310.84;7342721;19;19922;-68
2024/01/25 05:11:11;;;;;;;;;;;;;;;10.25;90.65;102304.44;7347702;19;19918;-69
2024/01/25 05:13:38;;;;;;;;;;;;;;;10.25;90.54;102305.28;7351596;19;21229;-69
2024/01/25 05:16:05;;;;;;;;;;;;;;;10.25;90.36;102297.38;7339907;19;19950;-68
2024/01/25 05:18:32;;;;;;;;;;;;;;;10.24;90.71;102297.47;7343642;19;19926;-69
2024/01/25 05:21:00;;;;;;;;;;;;;;;10.28;91.29;102284.00;7348389;19;20302;-69
2024/01/25 05:23:27;;;;;;;;;;;;;;;10.33;91.39;102285.44;7346497;19;20013;-67
2024/01/25 05:25:54;;;;;;;;;;;;;;;10.32;91.36;102283.75;7343998;19;19922;-68
2024/01/25 05:28:21;;;;;;;;;;;;;;;10.33;91.35;102280.16;7348275;19;20612;-69
2024/01/25 05:30:48;;;;;;;;;;;;;;;10.34;91.43;102276.59;7353331;19;19926;-68
2024/01/25 05:33:15;;;;;;;;;;;;;;;10.38;91.30;102275.41;7350710;19;19925;-68
2024/01/25 05:35:42;;;;;;;;;;;;;;;10.39;91.56;102275.28;7341400;19;19915;-69
2024/01/25 05:38:09;;;;;;;;;;;;;;;10.42;91.29;102271.56;7346272;19;20031;-68
2024/01/25 05:40:37;;;;;;;;;;;;;;;10.40;91.28;102282.25;7339476;19;21308;-69
2024/01/25 05:43:04;;;;;;;;;;;;;;;10.39;91.51;102290.22;7348506;19;19995;-69
2024/01/25 05:45:31;;;;;;;;;;;;;;;10.40;91.75;102290.13;7351913;19;20465;-69
2024/01/25 05:47:58;;;;;;;;;;;;;;;10.43;91.95;102294.31;7333349;19;19926;-69
2024/01/25 05:50:25;;;;;;;;;;;;;;;10.49;92.49;102288.59;7344528;19;19922;-68
2024/01/25 05:52:52;;;;;;;;;;;;;;;10.53;92.05;102290.88;7348386;19;19922;-68
2024/01/25 05:55:19;;;;;;;;;;;;;;;10.55;92.20;102280.22;7337101;19;20193;-69
2024/01/25 05:57:46;;;;;;;;;;;;;;;10.58;92.12;102282.63;7348063;19;20406;-69
2024/01/25 06:00:15;;;;;;;;;;;;;;;10.62;92.09;102276.16;7342403;19;19930;-69
2024/01/25 06:02:47;;;;;;;;;;;;;;;10.69;92.36;102274.75;7345766;19;20378;-69
2024/01/25 06:05:14;;;;;;;;;;;;;;;10.71;92.48;102271.06;7345654;19;19937;-68
2024/01/25 06:07:42;;;;;;;;;;;;;;;10.70;92.19;102274.63;7343605;19;20506;-68
2024/01/25 06:10:10;;;;;;;;;;;;;;;10.67;92.42;102277.50;7337132;19;19923;-67
2024/01/25 06:12:39;;;;;;;;;;;;;;;10.70;92.62;102274.63;7345711;19;19915;-68
2024/01/25 06:15:09;;;;;;;;;;;;;;;10.72;93.06;102274.50;7341073;19;22184;-67
2024/01/25 06:17:36;;;;;;;;;;;;;;;10.74;93.78;102272.59;7333449;19;19919;-70
2024/01/25 06:20:03;;;;;;;;;;;;;;;10.76;93.95;102260.16;7348019;19;19927;-69
2024/01/25 06:22:31;;;;;;;;;;;;;;;10.76;94.04;102260.16;7347173;19;21779;-69
2024/01/25 06:24:58;;;;;;;;;;;;;;;10.80;94.24;102263.41;7343142;19;19998;-69
2024/01/25 06:27:25;;;;;;;;;;;;;;;10.82;94.34;102270.19;7345527;19;19994;-70
2024/01/25 06:29:52;;;;;;;;;;;;;;;10.86;94.80;102269.03;7341012;19;19922;-69
2024/01/25 06:32:30;;;;;;;;;;;;;;;10.91;95.13;102269.50;7343665;19;19983;-69
2024/01/25 06:35:12;;;;;;;;;;;;;;;10.93;95.06;102259.69;7340274;19;19929;-69
2024/01/25 06:37:42;;;;;;;;;;;;;;;10.92;95.62;102250.09;7341776;19;19930;-69
2024/01/25 06:40:09;;;;;;;;;;;;;;;10.94;95.92;102250.00;7340868;19;20002;-68
2024/01/25 06:42:36;;;;;;;;;;;;;;;10.96;96.20;102254.19;7346761;19;19938;-69
2024/01/25 06:45:03;;;;;;;;;;;;;;;10.99;96.57;102253.94;7340350;19;19927;-69
2024/01/25 06:47:30;;;;;;;;;;;;;;;11.07;96.71;102237.56;7340846;19;19919;-69
2024/01/25 06:49:58;;;;;;;;;;;;;;;11.09;96.78;102233.81;7335693;19;20075;-68
2024/01/25 06:52:25;;;;;;;;;;;;;;;11.05;97.04;102240.28;7344199;19;19910;-69
2024/01/25 06:54:55;;;;;;;;;;;;;;;11.07;97.36;102237.56;7349071;19;20542;-68
2024/01/25 06:57:22;;;;;;;;;;;;;;;11.08;97.01;102233.94;7337733;19;20011;-68
2024/01/25 06:59:49;;;;;;;;;;;;;;;11.09;97.56;102233.81;7339204;19;19918;-67
2024/01/25 07:02:20;;;;;;;;;;;;;;;11.11;97.38;102239.81;7335392;19;19919;-68
2024/01/25 07:04:53;;;;;;;;;;;;;;;11.11;97.05;102237.19;7343593;19;19926;-68
2024/01/25 07:07:21;;;;;;;;;;;;;;;11.06;97.04;102247.25;7349271;19;19930;-68
2024/01/25 07:09:48;;;;;;;;;;;;;;;11.05;97.37;102234.19;7344312;19;20637;-69
2024/01/25 07:12:35;;;;;;;;;;;;;;;11.04;97.90;102228.09;7334615;19;19923;-70
2024/01/25 07:15:03;;;;;;;;;;;;;;;11.10;98.21;102232.03;7345219;19;20040;-68
2024/01/25 07:17:30;;;;;;;;;;;;;;;11.11;98.31;102231.91;7347070;19;20006;-70
2024/01/25 07:19:57;;;;;;;;;;;;;;;11.09;98.31;102241.72;7345248;19;19934;-68
2024/01/25 07:22:24;;;;;;;;;;;;;;;11.08;98.56;102240.03;7341605;19;19951;-69
2024/01/25 07:24:51;;;;;;;;;;;;;;;11.10;98.80;102238.13;7350568;19;19978;-69
2024/01/25 07:27:18;;;;;;;;;;;;;;;11.12;99.43;102228.31;7345262;19;19919;-69
2024/01/25 07:29:45;;;;;;;;;;;;;;;11.12;99.33;102235.38;7335664;19;20971;-68
2024/01/25 07:32:12;;;;;;;;;;;;;;;11.15;99.15;102227.22;7346073;19;19940;-69
2024/01/25 07:34:39;;;;;;;;;;;;;;;11.20;99.30;102227.72;7347745;19;20430;-69
2024/01/25 07:37:06;;;;;;;;;;;;;;;11.20;99.32;102235.59;7344721;19;19915;-69
2024/01/25 07:39:33;;;;;;;;;;;;;;;11.20;99.21;102234.78;7339174;19;20403;-69
2024/01/25 07:42:00;;;;;;;;;;;;;;;11.18;99.30;102234.03;7338093;19;19910;-68
2024/01/25 07:44:27;;;;;;;;;;;;;;;11.21;99.54;102242.56;7344717;19;19915;-69
2024/01/25 07:46:54;;;;;;;;;;;;;;;11.23;99.54;102232.72;7351668;19;20006;-69
2024/01/25 07:49:20;;;;;;;;;;;;;;;11.28;99.74;102230.56;7342480;19;19949;-69
2024/01/25 07:51:48;;;;;;;;;;;;;;;11.31;100.00;102227.69;7344589;19;20483;-67
2024/01/25 07:54:15;;;;;;;;;;;;;;;11.38;100.00;102230.66;7341507;19;19926;-69
2024/01/25 07:56:43;;;;;;;;;;;;;;;11.46;100.00;102234.38;7349665;19;19986;-68
2024/01/25 07:59:13;;;;;;;;;;;;;;;11.48;100.00;102232.44;7343963;19;19975;-67
2024/01/25 08:01:39;;;;;;;;;;;;;;;11.53;100.00;102229.41;7342116;19;19926;-68
2024/01/25 08:04:06;;;;;;;;;;;;;;;11.53;100.00;102222.34;7351970;19;20799;-68
2024/01/25 08:06:35;;;;;;;;;;;;;;;11.58;100.00;102208.78;7346337;19;19914;-69
2024/01/25 08:09:07;;;;;;;;;;;;;;;11.67;100.00;102200.16;7340410;19;19964;-69
2024/01/25 08:11:34;;;;;;;;;;;;;;;11.68;100.00;102199.19;7345095;19;19989;-69
2024/01/25 08:14:01;;;;;;;;;;;;;;;11.67;100.00;102200.16;7345800;19;19919;-68
2024/01/25 08:16:27;;;;;;;;;;;;;;;11.69;100.00;102207.91;7352323;19;20027;-69
2024/01/25 08:18:54;;;;;;;;;;;;;;;11.67;100.00;102199.31;7346250;19;19919;-69
2024/01/25 08:21:22;;;;;;;;;;;;;;;11.67;100.00;102197.53;7347972;19;19959;-69
2024/01/25 08:23:48;;;;;;;;;;;;;;;11.69;100.00;102192.94;7345657;19;19981;-69
2024/01/25 08:26:15;;;;;;;;;;;;;;;11.72;100.00;102187.44;7355040;19;19922;-68
2024/01/25 08:28:46;;;;;;;;;;;;;;;11.74;100.00;102185.53;7347268;19;19925;-68
2024/01/25 08:31:12;;;;;;;;;;;;;;;11.76;100.00;102193.31;7349998;19;20539;-68
2024/01/25 08:33:43;;;;;;;;;;;;;;;11.78;100.00;102194.03;7352174;19;22047;-68
2024/01/25 08:36:22;;;;;;;;;;;;;;;11.88;100.00;102184.41;7356639;19;19929;-68
2024/01/25 08:38:49;;;;;;;;;;;;;;;11.97;100.00;102178.34;7355098;19;19941;-67
2024/01/25 08:41:16;;;;;;;;;;;;;;;11.99;100.00;102186.94;7352315;19;20006;-68
2024/01/25 08:43:43;;;;;;;;;;;;;;;11.96;100.00;102190.69;7350236;19;19925;-68
2024/01/25 08:46:13;;;;;;;;;;;;;;;11.92;100.00;102189.28;7350178;19;19998;-68
2024/01/25 08:48:40;;;;;;;;;;;;;;;11.91;100.00;102186.75;7345047;19;20474;-68
2024/01/25 08:51:07;;;;;;;;;;;;;;;11.92;100.00;102188.44;7347788;19;19914;-68
2024/01/25 08:53:34;;;;;;;;;;;;;;;11.89;100.00;102183.41;7345244;19;19918;-68
2024/01/25 08:56:01;;;;;;;;;;;;;;;11.90;100.00;102187.72;7338899;19;19917;-67
2024/01/25 08:58:31;;;;;;;;;;;;;;;11.88;100.00;102182.59;7343981;19;20626;-69
2024/01/25 09:00:58;;;;;;;;;;;;;;;11.93;100.00;102175.13;7341445;19;19922;-69
2024/01/25 09:03:26;;;;;;;;;;;;;;;11.95;100.00;102175.81;7351242;19;20224;-68
2024/01/25 09:05:53;;;;;;;;;;;;;;;11.98;100.00;102172.13;7351510;19;19922;-68
2024/01/25 09:08:23;;;;;;;;;;;;;;;11.99;100.00;102173.75;7347140;19;21474;-68
2024/01/25 09:10:51;;;;;;;;;;;;;;;12.03;100.00;102175.19;7347303;19;20395;-69
2024/01/25 09:13:18;;;;;;;;;;;;;;;12.06;100.00;102174.09;7334743;19;19922;-68
2024/01/25 09:15:46;;;;;;;;;;;;;;;12.10;100.00;102175.50;7337183;19;20189;-68
2024/01/25 09:18:13;;;;;;;;;;;;;;;12.12;100.00;102168.31;7343664;19;21562;-69
2024/01/25 09:20:40;;;;;;;;;;;;;;;12.12;100.00;102170.94;7348120;19;20039;-70
2024/01/25 09:23:07;;;;;;;;;;;;;;;12.10;100.00;102167.59;7349776;19;20566;-69
2024/01/25 09:25:34;;;;;;;;;;;;;;;12.10;100.00;102178.97;7339826;19;19923;-68
2024/01/25 09:28:01;;;;;;;;;;;;;;;12.14;100.00;102167.19;7345478;19;20237;-68
2024/01/25 09:30:28;;;;;;;;;;;;;;;12.16;100.00;102153.88;7348060;19;19923;-69
2024/01/25 09:32:55;;;;;;;;;;;;;;;12.18;100.00;102163.34;7346506;19;19949;-68
2024/01/25 09:35:22;;;;;;;;;;;;;;;12.24;100.00;102156.72;7343099;19;19926;-68
2024/01/25 09:37:52;;;;;;;;;;;;;;;12.27;100.00;102152.00;7349841;19;20034;-68
2024/01/25 09:40:20;;;;;;;;;;;;;;;12.34;100.00;102157.59;7346346;19;19960;-70
2024/01/25 09:42:48;;;;;;;;;;;;;;;12.37;100.00;102158.16;7344771;19;19927;-68
2024/01/25 09:45:17;;;;;;;;;;;;;;;12.42;100.00;102152.50;7336610;19;19971;-67
2024/01/25 09:47:44;;;;;;;;;;;;;;;12.46;100.00;102145.13;7332447;19;19933;-69
2024/01/25 09:50:11;;;;;;;;;;;;;;;12.52;100.00;102153.38;7346314;19;19929;-70
2024/01/25 09:52:39;;;;;;;;;;;;;;;12.54;100.00;102151.44;7346304;19;19998;-69
2024/01/25 09:55:07;;;;;;;;;;;;;;;12.54;100.00;102132.97;7340396;19;19922;-67
2024/01/25 09:57:36;;;;;;;;;;;;;;;12.56;100.00;102131.00;7338030;19;20550;-71
2024/01/25 10:00:03;;;;;;;;;;;;;;;12.57;100.00;102119.47;7342102;19;20405;-68
2024/01/25 10:02:30;;;;;;;;;;;;;;;12.61;100.00;102120.88;7335267;19;19926;-68
2024/01/25 10:04:57;;;;;;;;;;;;;;;12.62;100.00;102114.63;7345435;19;20330;-69
2024/01/25 10:07:37;;;;;;;;;;;;;;;12.65;100.00;102113.53;7348150;19;20630;-69
2024/01/25 10:10:05;;;;;;;;;;;;;;;12.74;100.00;102113.56;7351432;19;19990;-67
2024/01/25 10:12:32;;;;;;;;;;;;;;;12.81;100.00;102117.31;7348006;19;19919;-71
2024/01/25 10:14:59;;;;;;;;;;;;;;;12.84;100.00;102113.59;7344572;19;19921;-68
2024/01/25 10:17:27;;;;;;;;;;;;;;;12.81;100.00;102119.97;7344979;19;19952;-67
2024/01/25 10:20:14;;;;;;;;;;;;;;;12.85;100.00;102113.44;7345483;19;19923;-68
2024/01/25 10:22:43;;;;;;;;;;;;;;;12.83;100.00;102114.56;7346244;19;19991;-68
2024/01/25 10:25:16;;;;;;;;;;;;;;;12.86;100.00;102115.13;7351678;19;20657;-68
2024/01/25 10:27:43;;;;;;;;;;;;;;;12.93;100.00;102120.69;7352096;19;20324;-68
2024/01/25 10:30:13;;;;;;;;;;;;;;;12.95;100.00;102113.50;7353684;19;19925;-68
2024/01/25 10:32:41;;;;;;;;;;;;;;;13.00;100.00;102111.28;7347401;19;19946;-68
2024/01/25 10:35:08;;;;;;;;;;;;;;;13.06;100.00;102115.16;7348241;19;19922;-69
2024/01/25 10:37:37;;;;;;;;;;;;;;;13.07;100.00;102112.38;7345151;19;19922;-68
2024/01/25 10:40:05;;;;;;;;;;;;;;;13.13;100.00;102113.66;7342809;19;20259;-67
2024/01/25 10:42:32;;;;;;;;;;;;;;;13.19;100.00;102113.13;7340271;19;20026;-67
2024/01/25 10:44:59;;;;;;;;;;;;;;;13.25;100.00;102110.78;7339666;19;19946;-68
2024/01/25 10:47:30;;;;;;;;;;;;;;;13.30;100.00;102115.66;7339027;19;19922;-68
2024/01/25 10:49:58;;;;;;;;;;;;;;;13.34;100.00;102118.84;7334232;19;19926;-68
2024/01/25 10:52:30;;;;;;;;;;;;;;;13.35;100.00;102109.94;7345622;19;19993;-70
2024/01/25 10:54:58;;;;;;;;;;;;;;;13.34;100.00;102110.91;7338485;19;20219;-68
2024/01/25 10:57:26;;;;;;;;;;;;;;;13.39;100.00;102103.38;7341610;19;19925;-68
2024/01/25 10:59:53;;;;;;;;;;;;;;;13.44;100.00;102106.44;7337523;19;19941;-68
2024/01/25 11:02:20;;;;;;;;;;;;;;;13.49;99.72;102110.34;7340176;19;19998;-68
2024/01/25 11:04:55;;;;;;;;;;;;;;;13.55;99.05;102108.97;7342671;19;19923;-70
2024/01/25 11:07:22;;;;;;;;;;;;;;;13.66;99.18;102104.31;7334364;19;19918;-68
2024/01/25 11:09:53;;;;;;;;;;;;;;;13.70;98.56;102102.25;7331144;19;20074;-67
2024/01/25 11:12:20;;;;;;;;;;;;;;;13.70;97.75;102100.44;7345322;19;19923;-68
2024/01/25 11:14:55;;;;;;;;;;;;;;;13.75;97.51;102094.72;7327065;19;20358;-69
2024/01/25 11:17:25;;;;;;;;;;;;;;;13.82;96.83;102095.81;7340176;19;19922;-68
2024/01/25 11:19:53;;;;;;;;;;;;;;;13.88;96.57;102091.75;7346787;19;19927;-68
2024/01/25 11:22:34;;;;;;;;;;;;;;;13.97;96.64;102090.91;7352932;19;19928;-69
2024/01/25 11:25:10;;;;;;;;;;;;;;;14.00;95.91;102083.53;7340319;19;20601;-68
2024/01/25 11:27:38;;;;;;;;;;;;;;;14.07;95.46;102076.66;7338520;19;20276;-69
2024/01/25 11:30:10;;;;;;;;;;;;;;;14.09;94.72;102069.41;7345235;19;20366;-68
2024/01/25 11:32:39;;;;;;;;;;;;;;;14.13;94.71;102062.84;7333382;19;20144;-68
2024/01/25 11:35:16;;;;;;;;;;;;;;;14.21;94.40;102059.50;7345340;19;19925;-67
2024/01/25 11:37:52;;;;;;;;;;;;;;;14.26;93.91;102059.88;7341966;19;19981;-69
2024/01/25 11:40:20;;;;;;;;;;;;;;;14.27;93.67;102055.44;7347627;19;20551;-68
2024/01/25 11:42:48;;;;;;;;;;;;;;;14.36;94.35;102067.78;7341398;19;19922;-69
2024/01/25 11:45:22;;;;;;;;;;;;;;;14.29;93.74;102050.81;7343725;19;19974;-68
2024/01/25 11:47:50;;;;;;;;;;;;;;;14.32;93.72;102053.19;7346302;19;19922;-69
2024/01/25 11:50:22;;;;;;;;;;;;;;;14.31;93.58;102067.38;7347315;19;19933;-70
2024/01/25 11:52:50;;;;;;;;;;;;;;;14.33;94.00;102055.66;7345043;19;20620;-69
2024/01/25 11:55:17;;;;;;;;;;;;;;;14.31;94.15;102038.28;7337795;19;19929;-68
2024/01/25 11:57:45;;;;;;;;;;;;;;;14.36;94.25;102028.06;7341161;19;19925;-68
2024/01/25 12:00:16;;;;;;;;;;;;;;;14.36;93.91;102028.06;7339505;19;19923;-69
2024/01/25 12:02:45;;;;;;;;;;;;;;;14.40;93.96;102029.47;7345801;19;19919;-69
2024/01/25 12:05:13;;;;;;;;;;;;;;;14.44;94.33;102030.81;7336288;19;20267;-67
2024/01/25 12:07:40;;;;;;;;;;;;;;;14.37;93.78;102024.47;7349464;19;19968;-67
2024/01/25 12:10:10;;;;;;;;;;;;;;;14.40;93.72;102026.81;7347447;19;20327;-68
2024/01/25 12:12:42;;;;;;;;;;;;;;;14.45;93.79;102028.03;7350259;19;20034;-68
2024/01/25 12:15:11;;;;;;;;;;;;;;;14.48;93.17;102018.94;7336506;19;20262;-67
2024/01/25 12:17:40;;;;;;;;;;;;;;;14.53;93.01;102014.88;7341440;19;19922;-68
2024/01/25 12:20:11;;;;;;;;;;;;;;;14.55;93.21;102010.28;7340209;19;19923;-68
2024/01/25 12:22:39;;;;;;;;;;;;;;;14.58;92.72;102014.44;7341861;19;19922;-68
2024/01/25 12:25:07;;;;;;;;;;;;;;;14.55;92.17;102012.09;7341965;19;19934;-68
2024/01/25 12:27:35;;;;;;;;;;;;;;;14.53;91.64;102009.56;7343513;19;19914;-68
2024/01/25 12:30:03;;;;;;;;;;;;;;;14.56;91.45;102005.81;7339251;19;19918;-69
2024/01/25 12:32:35;;;;;;;;;;;;;;;14.52;90.91;102005.28;7342795;19;19922;-67
2024/01/25 12:35:03;;;;;;;;;;;;;;;14.61;90.99;102008.84;7336148;19;20740;-67
2024/01/25 12:37:30;;;;;;;;;;;;;;;14.63;90.84;102006.88;7337014;19;19914;-68
2024/01/25 12:39:58;;;;;;;;;;;;;;;14.66;90.45;102006.59;7333389;19;19915;-67